• Join FlightAware (Why Join?)
  • Login
  • US Flag 
01:29PM EDT


 

Airport Tracker/Info


-or-


 

Live Flight TrackerFlight Track Log ✈ IBE3329 ✈ 07-Apr-2013 ✈ GOOY / DKR - LEMD / MAD

Flight Track Log - Related Links

Times and Time Zones

All times are in EDT time to prevent confusion due to time zone crossing. See the IBE3329 flight status page for this flight to view local times or setup timezone preferences in your user account.

Time Position Orientation Groundspeed Altitude Reporting Facility
EDT Latitude Longitude Course Direction KTS MPH feet Rate Location/Type
07:41PM 23.2225 -13.6505 23° Northeast  Level Estimated
07:42PM 23.3431 -13.5925 24° Northeast  Level Estimated
07:43PM 23.4636 -13.5344 24° Northeast  Level Estimated
07:44PM 23.5841 -13.4762 24° Northeast  Level Estimated
07:45PM 23.7046 -13.4179 24° Northeast  Level Estimated
07:46PM 23.8251 -13.3595 24° Northeast  Level Estimated
07:47PM 23.9455 -13.3010 24° Northeast  Level Estimated
07:48PM 24.0660 -13.2423 24° Northeast  Level Estimated
07:49PM 24.1863 -13.1836 24° Northeast  Level Estimated
07:50PM 24.3067 -13.1248 24° Northeast  Level Estimated
07:51PM 24.4271 -13.0658 24° Northeast  Level Estimated
07:52PM 24.5474 -13.0067 24° Northeast  Level Estimated
07:53PM 24.6677 -12.9475 24° Northeast  Level Estimated
07:54PM 24.7880 -12.8882 24° Northeast  Level Estimated
07:55PM 24.9083 -12.8288 24° Northeast  Level Estimated
07:56PM 25.0285 -12.7693 24° Northeast  Level Estimated
07:57PM 25.1487 -12.7096 24° Northeast  Level Estimated
07:58PM 25.2689 -12.6499 24° Northeast  Level Estimated
07:59PM 25.3890 -12.5900 24° Northeast  Level Estimated
08:00PM 25.5092 -12.5300 24° Northeast  Level Estimated
08:01PM 25.6293 -12.4698 24° Northeast  Level Estimated
08:02PM 25.7494 -12.4096 24° Northeast  Level Estimated
08:03PM 25.8695 -12.3492 24° Northeast  Level Estimated
08:04PM 25.9895 -12.2887 24° Northeast  Level Estimated
08:05PM 26.1095 -12.2281 24° Northeast  Level Estimated
08:06PM 26.2295 -12.1674 24° Northeast  Level Estimated
08:07PM 26.3495 -12.1065 24° Northeast  Level Estimated
08:08PM 26.4694 -12.0455 24° Northeast  Level Estimated
08:09PM 26.5893 -11.9844 25° Northeast  Level Estimated
08:10PM 26.7092 -11.9232 25° Northeast  Level Estimated
08:11PM 26.8291 -11.8618 25° Northeast  Level Estimated
08:12PM 26.9489 -11.8003 25° Northeast  Level Estimated
08:13PM 27.0687 -11.7386 25° Northeast  Level Estimated
08:14PM 27.1885 -11.6769 25° Northeast  Level Estimated
08:15PM 27.3082 -11.6150 25° Northeast  Level Estimated
08:16PM 27.4280 -11.5529 25° Northeast  Level Estimated
08:17PM 27.5477 -11.4908 25° Northeast  Level Estimated
08:18PM 27.6673 -11.4284 25° Northeast  Level Estimated
08:19PM 27.7870 -11.3660 25° Northeast  Level Estimated
08:20PM 27.9066 -11.3034 25° Northeast  Level Estimated
08:21PM 28.0262 -11.2407 25° Northeast  Level Estimated
08:22PM 28.1457 -11.1778 25° Northeast  Level Estimated
08:23PM 28.2653 -11.1149 25° Northeast  Level Estimated
08:24PM 28.3848 -11.0517 25° Northeast  Level Estimated
08:25PM 28.5042 -10.9884 25° Northeast  Level Estimated
08:26PM 28.6237 -10.9250 25° Northeast  Level Estimated
08:27PM 28.7431 -10.8614 25° Northeast  Level Estimated
08:28PM 28.8625 -10.7977 25° Northeast  Level Estimated
08:29PM 28.9818 -10.7338 25° Northeast  Level Estimated
08:30PM 29.1011 -10.6698 25° Northeast  Level Estimated
08:31PM 29.2204 -10.6057 25° Northeast  Level Estimated
08:32PM 29.3397 -10.5414 25° Northeast  Level Estimated
08:33PM 29.4589 -10.4769 25° Northeast  Level Estimated
08:34PM 29.5781 -10.4123 25° Northeast  Level Estimated
08:35PM 29.6973 -10.3475 25° Northeast  Level Estimated
08:36PM 29.8164 -10.2826 25° Northeast  Level Estimated
08:37PM 29.9355 -10.2176 25° Northeast  Level Estimated
08:38PM 30.0546 -10.1523 25° Northeast  Level Estimated
08:39PM 30.1736 -10.0869 25° Northeast  Level Estimated
08:40PM 30.2927 -10.0214 25° Northeast  Level Estimated
08:41PM 30.4116 -9.9557 25° Northeast  Level Estimated
08:42PM 30.5306 -9.8898 25° Northeast  Level Estimated
08:43PM 30.6495 -9.8238 26° Northeast  Level Estimated
08:44PM 30.7683 -9.7576 26° Northeast  Level Estimated
08:45PM 30.8872 -9.6913 26° Northeast  Level Estimated
08:46PM 31.0060 -9.6248 26° Northeast  Level Estimated
08:47PM 31.1248 -9.5581 26° Northeast  Level Estimated
08:48PM 31.2435 -9.4912 26° Northeast  Level Estimated
08:49PM 31.3622 -9.4242 26° Northeast  Level Estimated
08:50PM 31.4809 -9.3570 26° Northeast  Level Estimated
08:51PM 31.5995 -9.2897 26° Northeast  Level Estimated
08:52PM 31.7181 -9.2221 26° Northeast  Level Estimated
08:52PM 32.1770 -8.3070 26° Northeast 514 592 32,000  Level FlightAware
08:53PM 31.8367 -9.1545 26° Northeast  Level Estimated
08:53PM 32.2640 -8.2620 24° Northeast 510 587 32,000  Level FlightAware
08:53PM 32.3600 -8.2120 24° Northeast 503 579 32,000  Level FlightAware
08:54PM 32.4440 -8.1680 24° Northeast 498 573 32,000  Level FlightAware
08:55PM 32.5290 -8.1230 24° Northeast 496 571 32,000  Level FlightAware
08:56PM 32.6240 -8.0730 24° Northeast 495 570 32,000  Level FlightAware
08:56PM 32.7070 -8.0290 24° Northeast 497 572 32,000  Level FlightAware
08:57PM 32.8020 -7.9790 24° Northeast 496 571 32,000 60 Level FlightAware
08:58PM 32.8860 -7.9350 24° Northeast 496 571 32,100 60 Climbing FlightAware
08:58PM 32.9800 -7.8840 24° Northeast 494 568 32,100  Level FlightAware
08:59PM 33.0600 -7.8420 24° Northeast 490 564 32,100 -120 Level FlightAware
09:00PM 33.1460 -7.7960 24° Northeast 486 559 32,000 -120 Descending FlightAware
09:00PM 33.2390 -7.7460 24° Northeast 482 555 32,000  Level FlightAware
09:01PM 33.3190 -7.7040 24° Northeast 479 551 32,000  Level FlightAware
09:02PM 33.4000 -7.6600 24° Northeast 474 545 32,000  Level FlightAware
09:02PM 33.4810 -7.6170 24° Northeast 470 541 32,000  Level FlightAware
09:03PM 33.5600 -7.5740 24° Northeast 466 536 32,000  Level FlightAware
09:04PM 33.6370 -7.5330 24° Northeast 466 536 32,000  Level FlightAware
09:05PM 33.7040 -7.4970 24° Northeast 466 536 32,000  Level FlightAware
09:06PM 33.7710 -7.4610 24° Northeast 466 536 32,000  Level FlightAware
09:06PM 33.8380 -7.4250 24° Northeast 466 536 32,000  Level FlightAware
09:07PM 33.9050 -7.3890 24° Northeast 466 536 32,000  Level FlightAware
09:08PM 33.9890 -7.3440 24° Northeast 466 536 32,000  Level FlightAware
09:08PM 34.0560 -7.3080 24° Northeast 466 536 32,000  Level FlightAware
09:09PM 34.1230 -7.2720 24° Northeast 466 536 32,000  Level FlightAware
09:10PM 34.1900 -7.2360 24° Northeast 466 536 32,000  Level FlightAware
09:10PM 34.2570 -7.2000 24° Northeast 466 536 32,000  Level FlightAware
09:11PM 34.5150 -7.0530 25° Northeast 446 513 32,000  Level FlightAware
09:12PM 34.5950 -7.0090 24° Northeast 457 526 32,000 60 Level FlightAware
09:13PM 34.6660 -6.9690 25° Northeast 459 528 32,100 60 Climbing FlightAware
09:13PM 34.7570 -6.9190 24° Northeast 448 516 32,100  Level FlightAware
09:14PM 34.8400 -6.8720 25° Northeast 443 510 32,100 -120 Level FlightAware
09:15PM 34.9170 -6.8290 25° Northeast 441 507 32,000 -120 Descending FlightAware
09:16PM 35.0030 -6.7810 25° Northeast 446 513 32,000  Level FlightAware
09:16PM 35.0780 -6.7390 25° Northeast 442 509 32,000  Level FlightAware
09:17PM 35.1520 -6.6980 24° Northeast 439 505 32,000  Level FlightAware
09:18PM 35.2340 -6.6510 25° Northeast 427 491 32,000  Level FlightAware
09:18PM 35.3080 -6.6100 24° Northeast 424 488 32,000  Level FlightAware
09:19PM 35.3890 -6.5640 25° Northeast 430 495 32,000  Level FlightAware
09:20PM 35.4610 -6.5230 25° Northeast 428 493 32,000  Level FlightAware
09:21PM 35.5420 -6.4770 25° Northeast 429 494 32,000  Level FlightAware
09:21PM 35.6150 -6.4360 25° Northeast 430 495 32,000  Level FlightAware
09:22PM 35.6870 -6.3950 25° Northeast 430 495 32,000  Level FlightAware
09:23PM 35.7680 -6.3480 25° Northeast 430 495 32,000  Level FlightAware
09:23PM 35.8390 -6.3050 26° Northeast 431 496 32,000  Level FlightAware
09:24PM 35.9070 -6.2510 33° Northeast 425 489 32,000  Level FlightAware
09:25PM 35.9820 -6.1890 34° Northeast 425 489 32,000  Level FlightAware
09:25PM 36.0490 -6.1340 34° Northeast 425 489 32,000  Level FlightAware
09:26PM 36.1230 -6.0720 34° Northeast 425 489 32,000  Level FlightAware
09:27PM 36.1910 -6.0210 31° Northeast 421 484 32,000  Level FlightAware
09:27PM 36.2640 -5.9830 23° Northeast 424 488 32,000  Level FlightAware
09:28PM 36.3500 -5.9560 14° North 423 487 32,000  Level FlightAware
09:29PM 36.4270 -5.9430 North 423 487 32,000  Level FlightAware
09:30PM 36.5050 -5.9290 North 424 488 32,000  Level FlightAware
09:30PM 36.5930 -5.9130 North 425 489 32,000  Level FlightAware
09:31PM 36.6720 -5.8990 North 425 489 32,000  Level FlightAware
09:32PM 36.7590 -5.8830 North 425 489 32,000  Level FlightAware
09:32PM 36.8370 -5.8700 North 425 489 32,000  Level FlightAware
09:33PM 36.9160 -5.8540 North 426 490 32,000  Level FlightAware
09:34PM 37.0000 -5.8260 15° North 417 480 32,000  Level FlightAware
09:34PM 37.0770 -5.8010 15° North 416 479 32,000  Level FlightAware
09:35PM 37.1620 -5.7730 15° North 416 479 32,000  Level FlightAware
09:36PM 37.2380 -5.7480 15° North 415 478 32,000  Level FlightAware
09:37PM 37.3150 -5.7220 15° North 416 479 32,000  Level FlightAware
09:37PM 37.4000 -5.6940 15° North 416 479 32,000  Level FlightAware
09:38PM 37.4860 -5.6660 14° North 415 478 32,000 60 Level FlightAware
09:39PM 37.5610 -5.6410 15° North 414 476 32,100  Climbing FlightAware
09:39PM 37.6360 -5.6160 15° North 420 483 32,000 -120 Descending FlightAware
09:40PM 37.7200 -5.5880 15° North 418 481 32,000  Level FlightAware
09:41PM 37.7960 -5.5620 15° North 418 481 32,000  Level FlightAware
09:41PM 37.8690 -5.5370 15° North 419 482 32,000  Level FlightAware
09:42PM 37.9550 -5.5090 14° North 420 483 32,000  Level FlightAware
09:43PM 38.0310 -5.4830 15° North 420 483 32,000  Level FlightAware
09:44PM 38.1070 -5.4570 15° North 419 482 32,000  Level FlightAware
09:44PM 38.1900 -5.4290 15° North 419 482 32,000  Level FlightAware
09:45PM 38.3210 -5.3840 15° North 419 482 32,000  Level FlightAware
09:46PM 38.4260 -5.3480 15° North 420 483 32,000  Level FlightAware
09:47PM 38.5010 -5.3230 15° North 421 484 32,000  Level FlightAware
09:48PM 38.5850 -5.2930 16° North 422 486 32,000  Level FlightAware
09:48PM 38.6620 -5.2670 15° North 423 487 32,000  Level FlightAware
09:49PM 38.7470 -5.2380 15° North 422 486 32,000  Level FlightAware
09:50PM 38.8220 -5.2090 17° North 427 491 32,000  Level FlightAware
09:51PM 38.8920 -5.1590 29° Northeast 433 498 32,000  Level FlightAware
09:51PM 38.9700 -5.1010 30° Northeast 434 499 32,000 -180 Level FlightAware
09:52PM 39.0370 -5.0510 30° Northeast 429 494 31,800 -600 Descending FlightAware
09:53PM 39.1140 -4.9930 30° Northeast 438 504 31,200 -780 Descending FlightAware
09:53PM 39.1870 -4.9380 30° Northeast 450 518 30,700 -840 Descending FlightAware
09:54PM 39.2600 -4.8830 30° Northeast 452 520 30,100 -900 Descending FlightAware
09:55PM 39.3390 -4.8220 31° Northeast 455 524 29,500 -780 Descending FlightAware
09:55PM 39.4100 -4.7680 30° Northeast 456 525 29,000 -780 Descending FlightAware
09:56PM 39.4860 -4.7110 30° Northeast 453 521 28,500 -780 Descending FlightAware
09:57PM 39.5670 -4.6480 31° Northeast 456 525 27,900 -900 Descending FlightAware
09:58PM 39.6400 -4.5920 31° Northeast 455 524 27,300 -960 Descending FlightAware
09:58PM 39.7190 -4.5310 31° Northeast 448 516 26,600 -1,080 Descending FlightAware
09:59PM 39.7920 -4.4870 25° Northeast 426 490 25,800 -1,200 Descending FlightAware
10:00PM 39.8670 -4.4650 13° North 423 487 25,000 -1,200 Descending FlightAware
10:00PM 39.9580 -4.4370 13° North 419 482 24,100 -1,320 Descending FlightAware
10:01PM 40.0320 -4.4130 14° North 406 467 23,200 -1,500 Descending FlightAware
10:02PM 40.1100 -4.3880 14° North 389 448 22,000 -1,620 Descending FlightAware
10:02PM 40.1720 -4.3680 14° North 380 437 21,100 -1,500 Descending FlightAware
10:03PM 40.2470 -4.3450 13° North 380 437 20,000 -1,440 Descending FlightAware
10:04PM 40.3280 -4.3190 14° North 380 437 19,000 -1,140 Descending FlightAware
10:05PM 40.3960 -4.2980 13° North 376 433 18,400 -960 Descending FlightAware
10:05PM 40.4690 -4.2740 14° North 356 410 17,700 -900 Descending FlightAware
10:06PM 40.5310 -4.2540 14° North 330 380 17,200 -720 Descending FlightAware
10:07PM 40.5980 -4.2330 13° North 315 362 16,700 -660 Descending FlightAware
10:07PM 40.6540 -4.2140 14° North 313 360 16,300 -720 Descending FlightAware
10:08PM 40.7110 -4.1960 13° North 307 353 15,800 -780 Descending FlightAware
10:08PM 40.7300 -4.1860 22° Northeast 316 364 15,600 -1,020 Descending FlightAware
10:09PM 40.7470 -4.1660 42° Northeast 326 375 15,300 -1,140 Descending FlightAware
10:09PM 40.7780 -4.1000 58° Northeast 316 364 14,600 -1,320 Descending FlightAware
10:10PM 40.8110 -4.0280 59° Northeast 313 360 13,500 -1,380 Descending FlightAware
10:11PM 40.8410 -3.9620 59° Northeast 309 356 12,700 -1,380 Descending FlightAware
10:11PM 40.8750 -3.8890 58° Northeast 299 344 11,600 -1,140 Descending FlightAware
10:12PM 40.9030 -3.8260 60° Northeast 292 336 11,100 -480 Descending FlightAware
10:13PM 40.9310 -3.7660 58° Northeast 284 327 11,000 -120 Descending FlightAware
10:13PM 40.9620 -3.7020 57° Northeast 286 329 11,000 -540 Level FlightAware
10:14PM 40.9890 -3.6420 59° Northeast 266 306 10,300 -780 Descending FlightAware
10:15PM 40.9990 -3.6000 72° East 254 292 10,100 -360 Descending FlightAware
10:15PM 40.9970 -3.5900 105° East 249 287 10,100  Level FlightAware
10:15PM 40.9840 -3.5730 135° Southeast 227 261 10,100 -120 Level FlightAware
10:16PM 40.9390 -3.5620 170° South 202 232 10,000 -180 Descending FlightAware
10:16PM 40.9150 -3.5610 178° South 193 222 9,900 -600 Descending FlightAware
10:17PM 40.8910 -3.5610 180° South 191 220 9,500 -960 Descending FlightAware
10:17PM 40.8710 -3.5610 180° South 193 222 9,100 -480 Descending FlightAware
10:18PM 40.8440 -3.5610 180° South 193 222 9,100 -1,440 Level FlightAware
10:18PM 40.8160 -3.5610 180° South 191 220 7,700 -1,980 Descending FlightAware
10:19PM 40.7910 -3.5610 180° South 187 215 7,300 -1,020 Descending FlightAware
10:19PM 40.7630 -3.5610 180° South 186 214 6,700 -1,140 Descending FlightAware
10:20PM 40.7300 -3.5610 180° South 186 214 6,000 -1,020 Descending FlightAware
10:20PM 40.7100 -3.5600 178° South 185 213 5,600 -1,140 Descending FlightAware
10:21PM 40.6840 -3.5600 180° South 180 207 5,000 -1,020 Descending FlightAware
10:21PM 40.6610 -3.5600 180° South 159 183 4,600 -780 Descending FlightAware
10:22PM 40.6430 -3.5600 180° South 153 176 4,300 -900 Descending FlightAware
10:22PM 40.6220 -3.5600 180° South 147 169 3,800 -900 Descending FlightAware
10:23PM 40.6020 -3.5600 180° South 142 163 3,400 -780 Descending FlightAware
10:23PM 40.5860 -3.5600 180° South 142 163 3,100 -720 Descending FlightAware
10:23PM 40.5690 -3.5600 180° South 146 168 2,800 -840 Descending FlightAware
10:24PM 40.5440 -3.5600 180° South 145 167 2,300 -900 Descending FlightAware